This is the latest recevied weather packets stored in our database for station/object OE-11272. If no packets are shown the sender has not sent any weather packets the latest 10 day(s).
| Time | Temp. | Humidity | Pressure | Rain* | Wind** | Luminosity | Snow |
|---|---|---|---|---|---|---|---|
| 1787783125 | 18.33° C | 94% | 1017.7 hPa | 0 mm | - | 0 W/m² | - |
| 1787782300 | 18.89° C | 92% | 1017.6 hPa | 0 mm | - | 0 W/m² | - |
| 1787781926 | 18.33° C | 93% | 1017.5 hPa | 0 mm | - | 0 W/m² | - |
| 1787781325 | 18.33° C | 93% | 1017.6 hPa | 0 mm | - | 0 W/m² | - |
| 1787780500 | 18.33° C | 94% | 1017.6 hPa | 0 mm | - | 0 W/m² | - |
| 1787780126 | 18.33° C | 93% | 1017.5 hPa | 0 mm | - | 0 W/m² | - |
| 1787779525 | 18.89° C | 90% | 1017.4 hPa | 0 mm | - | 0 W/m² | - |
| 1787778699 | 19.44° C | 87% | 1017.3 hPa | 0 mm | - | 0 W/m² | - |
| 1787778332 | 19.44° C | 88% | 1017.3 hPa | 0 mm | - | 0 W/m² | - |
| 1787777726 | 19.44° C | 88% | 1017.2 hPa | 0 mm | - | 0 W/m² | - |
| 1787776899 | 19.44° C | 89% | 1017.1 hPa | 0 mm | - | 0 W/m² | - |
| 1787776526 | 19.44° C | 90% | 1017 hPa | 0 mm | - | 0 W/m² | - |
| 1787775926 | 19.44° C | 87% | 1016.9 hPa | 0 mm | - | 0 W/m² | - |
| 1787775100 | 19.44° C | 86% | 1016.9 hPa | 0 mm | - | 0 W/m² | - |
| 1787774726 | 19.44° C | 87% | 1016.9 hPa | 0 mm | - | 0 W/m² | - |
| 1787774126 | 20° C | 86% | 1016.9 hPa | 0 mm | - | 0 W/m² | - |
| 1787773299 | 20° C | 88% | 1016.6 hPa | 0 mm | - | 0 W/m² | - |
| 1787772926 | 20° C | 85% | 1016.4 hPa | 0 mm | - | 0 W/m² | - |
| 1787772326 | 21.11° C | 82% | 1016.1 hPa | 0 mm | - | 0 W/m² | - |
| 1787771499 | 20.56° C | 83% | 1015.9 hPa | 0 mm | - | 0 W/m² | - |
| 1787771126 | 21.11° C | 82% | 1015.9 hPa | 0 mm | - | 0 W/m² | - |
| 1787770526 | 21.11° C | 81% | 1015.6 hPa | 0 mm | - | 0 W/m² | - |
| 1787769699 | 21.11° C | 81% | 1015.4 hPa | 0 mm | - | 0 W/m² | - |
| 1787769326 | 21.67° C | 83% | 1015.2 hPa | 0 mm | - | 0 W/m² | - |
| 1787768726 | 22.22° C | 77% | 1014.9 hPa | 0 mm | - | 0 W/m² | - |
* Rain latest hour (hover to see other rain measurements)
** Current wind speed in m/s (hover to see current wind gust speed)